首页
METAR-TAF:

METAR-TAF

机场 :

Dupage Airport

West Chicago, 伊利诺伊州, 美国

纬度: 41-53-47N, 经度: 088-15-04W, 海拔: 231米

当前天气观测

该预报发布于25分钟前的07:52 UTC
风速7节,风向东北
温度 3°C
湿度 75%
气压 1019 hPa
能見度: 16.1公里
少量云层高于1500英尺
阴天层高于6000英尺

METAR: KDPA 310752Z 04007KT 10SM FEW015 OVC060 03/M01 A3010 RMK AO2 SLP198 T00281006

时间: 03:17 (08:17 UTC)

预报

该预报发布于2小时和47分钟前的05:30 UTC
预报有效从31日的 06点(UTC)到 01日的 06点(UTC)
风速11节,风向东北
能見度: 10公里
散云层高于1500英尺
阴天层高于5000英尺
短暂存在
从 31日的 06点(UTC)到 31日的 10点(UTC)
多云层高于1500英尺
从 31日的 1000点(UTC)
风速12节,风向北转东北
能見度: 10公里
阴天层高于1500英尺
从 01日的 0000点(UTC)
风速9节,风向北转东北
能見度: 10公里
阴天层高于1500英尺

TAF: KDPA 310530Z 3106/0106 04011KT P6SM SCT015 OVC050 TEMPO 3106/3110 BKN015 FM311000 02012KT P6SM OVC015 FM010000 02009KT P6SM OVC015

超过4000个机场的气象观测和天气预报(METAR&TAF报告)。

可查询的气象台以黄色和红色小点在地图上表示。

将鼠标移到小点上方,可查看气象台名称。

然后点击查看天气观测和预报。

如需切换地图:点击带黑十字的绿色按钮放大地图;点击带横线的绿色按钮缩小地图;或者点击绿色箭头查看邻近地区的地图。


METAR-TAF: